createdAt,value
2019-02-14T00:00:09.087Z,21.73
2019-02-14T00:02:37.489Z,21.75
2019-02-14T00:05:06.107Z,21.73
2019-02-14T00:07:34.494Z,21.74
2019-02-14T00:10:02.954Z,21.72
2019-02-14T00:12:31.434Z,21.73
2019-02-14T00:14:59.821Z,21.73
2019-02-14T00:17:28.218Z,21.73
2019-02-14T00:19:56.664Z,21.75
2019-02-14T00:22:25.058Z,21.74
2019-02-14T00:24:53.449Z,21.74
2019-02-14T00:27:21.894Z,21.75
2019-02-14T00:29:50.285Z,21.74
2019-02-14T00:32:18.686Z,21.76
2019-02-14T00:34:47.235Z,21.76
2019-02-14T00:37:15.634Z,21.75
2019-02-14T00:39:44.102Z,21.75
2019-02-14T00:42:12.551Z,21.75
2019-02-14T00:44:40.940Z,21.76
2019-02-14T00:47:09.402Z,21.75
2019-02-14T00:49:37.845Z,21.76
2019-02-14T00:52:06.242Z,21.76
2019-02-14T00:54:34.641Z,21.76
2019-02-14T00:57:03.157Z,21.76
2019-02-14T00:59:31.604Z,21.77
2019-02-14T01:02:00.090Z,21.77
2019-02-14T01:04:28.539Z,21.75
2019-02-14T01:06:56.932Z,21.75
2019-02-14T01:09:25.325Z,21.76
2019-02-14T01:11:53.834Z,21.75
2019-02-14T01:14:22.291Z,21.75
2019-02-14T01:16:50.682Z,21.75
2019-02-14T01:19:19.292Z,21.76
2019-02-14T01:21:47.697Z,21.75
2019-02-14T01:24:16.099Z,21.76
2019-02-14T01:26:44.540Z,21.75
2019-02-14T01:29:13.096Z,21.75
2019-02-14T01:31:41.573Z,21.76
2019-02-14T01:34:10.042Z,21.75
2019-02-14T01:36:38.426Z,21.76
2019-02-14T01:39:06.873Z,21.76
2019-02-14T01:41:35.607Z,21.75
2019-02-14T01:44:04.173Z,21.76
2019-02-14T01:46:32.568Z,21.75
2019-02-14T01:49:01.153Z,21.76
2019-02-14T01:51:29.541Z,21.76
2019-02-14T01:53:57.995Z,21.75
2019-02-14T01:56:26.429Z,21.77
2019-02-14T01:58:54.932Z,21.75
2019-02-14T02:01:23.326Z,21.76
2019-02-14T02:03:51.799Z,21.77
2019-02-14T02:06:20.196Z,21.76
2019-02-14T02:08:48.593Z,21.75
2019-02-14T02:11:17.109Z,21.76
2019-02-14T02:13:45.509Z,21.76
2019-02-14T02:16:13.974Z,21.77
2019-02-14T02:18:42.479Z,21.76
2019-02-14T02:21:10.874Z,21.77
2019-02-14T02:23:39.344Z,21.76
2019-02-14T02:26:07.823Z,21.76
2019-02-14T02:28:36.211Z,21.76
2019-02-14T02:31:04.601Z,21.77
2019-02-14T02:33:33.081Z,21.78
2019-02-14T02:36:01.530Z,21.76
2019-02-14T02:38:29.921Z,21.77
2019-02-14T02:40:58.378Z,21.77
2019-02-14T02:43:26.866Z,21.77
2019-02-14T02:45:55.264Z,21.77
2019-02-14T02:48:23.821Z,21.77
2019-02-14T02:50:52.213Z,21.76
2019-02-14T02:53:20.605Z,21.78
2019-02-14T02:55:49.128Z,21.78
2019-02-14T02:58:17.550Z,21.76
2019-02-14T03:00:45.945Z,21.77
2019-02-14T03:03:14.470Z,21.77
2019-02-14T03:05:42.901Z,21.78
2019-02-14T03:08:11.289Z,21.78
2019-02-14T03:10:39.792Z,21.77
2019-02-14T03:13:08.195Z,21.77
2019-02-14T03:15:36.584Z,21.77
2019-02-14T03:18:05.021Z,21.78
2019-02-14T03:20:33.414Z,21.78
2019-02-14T03:23:01.831Z,21.77
2019-02-14T03:25:30.271Z,21.77
2019-02-14T03:27:58.671Z,21.77
2019-02-14T03:30:27.083Z,21.78
2019-02-14T03:32:55.630Z,21.78
2019-02-14T03:35:24.085Z,21.78
2019-02-14T03:37:52.478Z,21.78
2019-02-14T03:40:20.946Z,21.77
2019-02-14T03:42:49.364Z,21.77
2019-02-14T03:45:19.107Z,21.78
2019-02-14T03:47:47.544Z,21.78
2019-02-14T03:50:16.009Z,21.78
2019-02-14T03:52:44.391Z,21.79
2019-02-14T03:55:13.056Z,21.79
2019-02-14T03:57:41.453Z,21.80
2019-02-14T04:00:17.613Z,21.79
2019-02-14T04:02:46.490Z,21.79
2019-02-14T04:05:14.936Z,21.79
2019-02-14T04:07:43.331Z,21.80
2019-02-14T04:10:14.082Z,21.78
2019-02-14T04:12:42.635Z,21.78
2019-02-14T04:15:13.215Z,21.78
2019-02-14T04:17:41.655Z,21.77
2019-02-14T04:20:10.992Z,21.78
2019-02-14T04:22:39.388Z,21.78
2019-02-14T04:25:09.291Z,21.78
2019-02-14T04:27:37.687Z,21.78
2019-02-14T04:30:13.801Z,21.78
2019-02-14T04:32:42.395Z,21.79
2019-02-14T04:35:10.790Z,21.78
2019-02-14T04:37:39.183Z,21.79
2019-02-14T04:40:14.761Z,21.78
2019-02-14T04:42:43.153Z,21.79
2019-02-14T04:45:13.087Z,21.78
2019-02-14T04:47:41.524Z,21.78
2019-02-14T04:50:11.361Z,21.78
2019-02-14T04:52:39.765Z,21.78
2019-02-14T04:55:12.032Z,21.77
2019-02-14T04:57:40.424Z,21.78
2019-02-14T05:00:13.983Z,21.78
2019-02-14T05:02:42.435Z,21.78
2019-02-14T05:05:10.933Z,21.77
2019-02-14T05:07:39.330Z,21.78
2019-02-14T05:10:11.695Z,21.77
2019-02-14T05:12:40.074Z,21.76
2019-02-14T05:15:10.943Z,21.77
2019-02-14T05:17:39.523Z,21.77
2019-02-14T05:20:09.967Z,21.77
2019-02-14T05:22:38.354Z,21.77
2019-02-14T05:25:08.434Z,21.78
2019-02-14T05:27:36.885Z,21.78
2019-02-14T05:30:08.548Z,21.78
2019-02-14T05:32:36.994Z,21.78
2019-02-14T05:35:06.635Z,21.80
2019-02-14T05:37:35.030Z,21.79
2019-02-14T05:40:03.838Z,21.79
2019-02-14T05:42:32.280Z,21.79
2019-02-14T05:45:00.673Z,21.79
2019-02-14T05:47:29.169Z,21.79
2019-02-14T05:49:57.559Z,21.80
2019-02-14T05:52:25.990Z,21.81
2019-02-14T05:54:54.426Z,21.80
2019-02-14T05:57:22.896Z,21.80
2019-02-14T05:59:51.284Z,21.80
2019-02-14T06:02:20.009Z,21.79
2019-02-14T06:04:48.397Z,21.81
2019-02-14T06:07:16.810Z,21.80
2019-02-14T06:09:45.388Z,21.80
2019-02-14T06:12:13.781Z,21.81
2019-02-14T06:14:42.178Z,21.81
2019-02-14T06:17:10.608Z,21.80
2019-02-14T06:19:39.003Z,21.79
2019-02-14T06:22:07.402Z,21.80
2019-02-14T06:24:35.879Z,21.80
2019-02-14T06:27:04.279Z,21.79
2019-02-14T06:29:32.672Z,21.76
2019-02-14T06:32:01.171Z,21.75
2019-02-14T06:34:29.571Z,21.72
2019-02-14T06:36:57.962Z,21.73
2019-02-14T06:39:26.560Z,21.73
2019-02-14T06:41:54.959Z,21.72
2019-02-14T06:44:23.353Z,21.71
2019-02-14T06:46:51.823Z,21.72
2019-02-14T06:49:21.851Z,21.71
2019-02-14T06:51:50.242Z,21.73
2019-02-14T06:54:18.673Z,21.73
2019-02-14T06:56:47.090Z,21.72
2019-02-14T06:59:15.599Z,21.72
2019-02-14T07:01:44.104Z,21.73
2019-02-14T07:04:12.499Z,21.71
2019-02-14T07:06:40.977Z,21.72
2019-02-14T07:09:09.465Z,21.71
2019-02-14T07:11:37.882Z,21.73
2019-02-14T07:14:06.294Z,21.73
2019-02-14T07:16:34.733Z,21.73
2019-02-14T07:19:03.127Z,21.72
2019-02-14T07:21:31.522Z,21.73
2019-02-14T07:24:00.011Z,21.73
2019-02-14T07:26:28.398Z,21.72
2019-02-14T07:28:56.869Z,21.72
2019-02-14T07:31:25.310Z,21.72
2019-02-14T07:33:53.944Z,21.73
2019-02-14T07:36:22.340Z,21.72
2019-02-14T07:38:50.844Z,21.73
2019-02-14T07:41:19.313Z,21.75
2019-02-14T07:43:47.713Z,21.73
2019-02-14T07:46:22.552Z,21.74
2019-02-14T07:48:46.384Z,21.75
2019-02-14T07:51:14.797Z,21.75
2019-02-14T07:53:43.318Z,21.75
2019-02-14T07:56:11.717Z,21.75
2019-02-14T07:58:40.182Z,21.75
2019-02-14T08:01:08.646Z,21.76
2019-02-14T08:03:37.039Z,21.77
2019-02-14T08:06:05.437Z,21.76
2019-02-14T08:08:33.945Z,21.76
2019-02-14T08:11:02.381Z,21.76
2019-02-14T08:13:30.775Z,21.77
2019-02-14T08:15:59.257Z,21.77
2019-02-14T08:18:27.656Z,21.78
2019-02-14T08:20:56.061Z,21.77
2019-02-14T08:23:24.511Z,21.77
2019-02-14T08:25:52.927Z,21.77
2019-02-14T08:28:21.318Z,21.77
2019-02-14T08:30:49.944Z,21.78
2019-02-14T08:33:18.336Z,21.77
2019-02-14T08:35:46.735Z,21.79
2019-02-14T08:38:15.191Z,21.78
2019-02-14T08:40:43.612Z,21.79
2019-02-14T08:43:12.021Z,21.80
2019-02-14T08:45:40.464Z,21.80
2019-02-14T08:48:08.855Z,21.79
2019-02-14T08:50:37.247Z,21.80
2019-02-14T08:53:05.716Z,21.80
2019-02-14T08:55:34.119Z,21.80
2019-02-14T08:58:02.505Z,21.80
2019-02-14T09:00:31.004Z,21.81
2019-02-14T09:02:59.393Z,21.83
2019-02-14T09:05:27.870Z,21.81
2019-02-14T09:07:56.435Z,21.84
2019-02-14T09:10:24.828Z,21.84
2019-02-14T09:12:53.295Z,21.83
2019-02-14T09:15:21.806Z,21.84
2019-02-14T09:17:50.194Z,21.84
2019-02-14T09:20:20.032Z,21.85
2019-02-14T09:22:48.539Z,21.86
2019-02-14T09:25:17.004Z,21.86
2019-02-14T09:27:45.392Z,21.88
2019-02-14T09:30:14.832Z,21.88
2019-02-14T09:32:43.227Z,21.89
2019-02-14T09:35:11.633Z,21.89
2019-02-14T09:37:40.071Z,21.91
2019-02-14T09:40:18.243Z,21.91
2019-02-14T09:42:46.686Z,21.92
2019-02-14T09:45:15.185Z,21.93
2019-02-14T09:47:43.588Z,21.95
2019-02-14T09:50:15.296Z,21.96
2019-02-14T09:52:43.675Z,21.96
2019-02-14T09:55:15.326Z,21.97
2019-02-14T09:57:43.810Z,21.99
2019-02-14T10:00:17.073Z,21.98
2019-02-14T10:02:45.461Z,21.99
2019-02-14T10:05:14.763Z,22.01
2019-02-14T10:07:43.127Z,22.02
2019-02-14T10:10:14.592Z,22.02
2019-02-14T10:12:43.048Z,22.03
2019-02-14T10:15:11.610Z,22.03
2019-02-14T10:17:40.001Z,22.03
2019-02-14T10:20:13.964Z,22.04
2019-02-14T10:22:42.412Z,22.04
2019-02-14T10:25:11.445Z,22.05
2019-02-14T10:27:39.959Z,22.06
2019-02-14T10:30:14.298Z,22.07
2019-02-14T10:32:42.688Z,22.07
2019-02-14T10:35:11.129Z,22.09
2019-02-14T10:37:39.531Z,22.09
2019-02-14T10:40:10.730Z,22.11
2019-02-14T10:42:39.167Z,22.11
2019-02-14T10:45:17.058Z,22.12
2019-02-14T10:47:45.455Z,22.14
2019-02-14T10:50:14.017Z,22.15
2019-02-14T10:52:42.406Z,22.16
2019-02-14T10:55:12.506Z,22.18
2019-02-14T10:57:40.971Z,22.18
2019-02-14T11:00:19.478Z,22.23
2019-02-14T11:02:48.355Z,22.27
2019-02-14T11:05:17.552Z,22.29
2019-02-14T11:07:45.952Z,22.31
2019-02-14T11:10:15.166Z,22.32
2019-02-14T11:12:43.632Z,22.33
2019-02-14T11:15:17.172Z,22.35
2019-02-14T11:17:45.707Z,22.35
2019-02-14T11:20:15.104Z,22.36
2019-02-14T11:22:43.491Z,22.38
2019-02-14T11:25:14.837Z,22.39
2019-02-14T11:27:43.239Z,22.41
2019-02-14T11:30:13.671Z,22.42
2019-02-14T11:32:42.119Z,22.42
2019-02-14T11:35:10.984Z,22.43
2019-02-14T11:37:39.375Z,22.43
2019-02-14T11:40:10.772Z,22.44
2019-02-14T11:42:39.312Z,22.43
2019-02-14T11:45:10.964Z,22.44
2019-02-14T11:47:39.469Z,22.46
2019-02-14T11:50:10.304Z,22.48
2019-02-14T11:52:38.704Z,22.52
2019-02-14T11:55:08.589Z,22.62
2019-02-14T11:57:37.166Z,22.72
2019-02-14T12:00:19.128Z,22.81
2019-02-14T12:02:55.171Z,22.86
2019-02-14T12:05:17.637Z,22.90
2019-02-14T12:07:46.153Z,22.94
2019-02-14T12:10:15.377Z,23.02
2019-02-14T12:12:43.781Z,23.10
2019-02-14T12:15:13.371Z,23.13
2019-02-14T12:17:41.790Z,23.14
2019-02-14T12:20:16.516Z,23.13
2019-02-14T12:22:47.170Z,23.13
2019-02-14T12:25:27.491Z,23.14
2019-02-14T12:27:55.938Z,23.12
2019-02-14T12:30:24.384Z,23.09
2019-02-14T12:32:52.767Z,23.10
2019-02-14T12:35:21.209Z,23.07
2019-02-14T12:37:49.614Z,23.01
2019-02-14T12:40:18.083Z,23.01
2019-02-14T12:42:46.712Z,23.02
2019-02-14T12:45:26.074Z,23.04
2019-02-14T12:47:54.861Z,23.20
2019-02-14T12:50:23.253Z,23.25
2019-02-14T12:52:51.689Z,23.31
2019-02-14T12:55:20.124Z,23.32
2019-02-14T12:57:48.582Z,23.36
2019-02-14T13:00:24.189Z,23.41
2019-02-14T13:02:52.814Z,23.59
2019-02-14T13:05:21.201Z,23.68
2019-02-14T13:07:49.593Z,24.02
2019-02-14T13:10:18.981Z,24.50
2019-02-14T13:12:47.389Z,25.04
2019-02-14T13:15:21.733Z,25.44
2019-02-14T13:17:51.568Z,25.50
2019-02-14T13:20:19.956Z,25.40
2019-02-14T13:22:48.380Z,25.21
2019-02-14T13:25:16.979Z,25.00
2019-02-14T13:27:45.337Z,25.00
2019-02-14T13:30:25.292Z,25.41
2019-02-14T13:32:53.680Z,25.61
2019-02-14T13:35:22.148Z,25.71
2019-02-14T13:37:50.579Z,25.53
2019-02-14T13:40:19.038Z,25.44
2019-02-14T13:42:47.423Z,25.21
2019-02-14T13:45:24.843Z,25.06
2019-02-14T13:47:53.249Z,24.96
2019-02-14T13:50:21.637Z,25.32
2019-02-14T13:52:50.075Z,25.58
2019-02-14T13:55:18.526Z,25.64
2019-02-14T13:57:46.996Z,25.65
2019-02-14T14:00:22.485Z,25.44
2019-02-14T14:02:50.940Z,25.27
2019-02-14T14:05:19.343Z,25.12
2019-02-14T14:07:48.037Z,24.95
2019-02-14T14:10:16.495Z,24.82
2019-02-14T14:12:44.895Z,24.71
2019-02-14T14:15:13.332Z,24.59
2019-02-14T14:17:41.744Z,24.50
2019-02-14T14:20:10.267Z,24.43
2019-02-14T14:22:38.722Z,24.36
2019-02-14T14:25:11.433Z,24.28
2019-02-14T14:27:39.835Z,24.24
2019-02-14T14:30:10.913Z,24.19
2019-02-14T14:32:39.297Z,24.13
2019-02-14T14:35:10.800Z,24.09
2019-02-14T14:37:39.267Z,24.04
2019-02-14T14:40:16.025Z,23.98
2019-02-14T14:42:52.057Z,23.95
2019-02-14T14:45:37.937Z,23.89
2019-02-14T14:48:06.615Z,23.85
2019-02-14T14:50:35.000Z,23.79
2019-02-14T14:53:03.402Z,23.75
2019-02-14T14:55:31.853Z,23.70
2019-02-14T14:58:00.243Z,23.68
2019-02-14T15:00:28.639Z,23.64
2019-02-14T15:02:57.081Z,23.60
2019-02-14T15:05:25.473Z,23.56
2019-02-14T15:07:53.921Z,23.54
2019-02-14T15:10:22.446Z,23.50
2019-02-14T15:12:50.863Z,23.47
2019-02-14T15:15:19.256Z,23.42
2019-02-14T15:17:47.705Z,23.39
2019-02-14T15:20:16.139Z,23.37
2019-02-14T15:22:44.520Z,23.34
2019-02-14T15:25:13.171Z,23.32
2019-02-14T15:27:41.573Z,23.28
2019-02-14T15:30:09.981Z,23.24
2019-02-14T15:32:38.546Z,23.22
2019-02-14T15:35:08.776Z,23.20
2019-02-14T15:37:37.231Z,23.17
2019-02-14T15:40:11.389Z,23.15
2019-02-14T15:42:39.786Z,23.13
2019-02-14T15:45:08.714Z,23.10
2019-02-14T15:47:37.321Z,23.08
2019-02-14T15:50:08.895Z,23.06
2019-02-14T15:52:37.606Z,23.02
2019-02-14T15:55:07.473Z,23.02
2019-02-14T15:57:35.860Z,23.00
2019-02-14T16:00:07.999Z,22.97
2019-02-14T16:02:35.868Z,22.96
2019-02-14T16:05:04.988Z,22.94
2019-02-14T16:07:33.393Z,22.92
2019-02-14T16:10:03.720Z,22.89
2019-02-14T16:12:32.021Z,22.88
2019-02-14T16:15:00.415Z,22.87
2019-02-14T16:17:28.880Z,22.85
2019-02-14T16:19:58.008Z,22.86
2019-02-14T16:22:30.111Z,22.85
2019-02-14T16:24:58.269Z,22.83
2019-02-14T16:27:26.941Z,22.81
2019-02-14T16:29:55.493Z,22.81
2019-02-14T16:32:23.965Z,22.80
2019-02-14T16:34:52.459Z,22.79
2019-02-14T16:37:20.860Z,22.75
2019-02-14T16:39:51.888Z,22.74
2019-02-14T16:42:20.053Z,22.72
2019-02-14T16:44:48.463Z,22.71
2019-02-14T16:47:16.977Z,22.70
2019-02-14T16:49:45.380Z,22.68
2019-02-14T16:52:13.851Z,22.68
2019-02-14T16:54:42.489Z,22.65
2019-02-14T16:57:10.898Z,22.65
2019-02-14T16:59:39.296Z,22.64
2019-02-14T17:02:07.756Z,22.61
2019-02-14T17:04:36.196Z,22.59
2019-02-14T17:07:04.594Z,22.60
2019-02-14T17:09:33.060Z,22.58
2019-02-14T17:12:01.678Z,22.56
2019-02-14T17:14:30.161Z,22.57
2019-02-14T17:16:58.753Z,22.54
2019-02-14T17:19:27.262Z,22.55
2019-02-14T17:21:55.660Z,22.54
2019-02-14T17:24:24.143Z,22.53
2019-02-14T17:26:52.545Z,22.52
2019-02-14T17:29:20.939Z,22.50
2019-02-14T17:31:49.395Z,22.50
2019-02-14T17:34:17.862Z,22.49
2019-02-14T17:36:46.303Z,22.48
2019-02-14T17:39:14.834Z,22.47
2019-02-14T17:41:43.242Z,22.47
2019-02-14T17:44:11.691Z,22.46
2019-02-14T17:46:40.280Z,22.46
2019-02-14T17:49:08.758Z,22.47
2019-02-14T17:51:37.197Z,22.45
2019-02-14T17:54:07.366Z,22.43
2019-02-14T17:56:35.840Z,22.44
2019-02-14T17:59:04.245Z,22.42
2019-02-14T18:01:32.699Z,22.42
2019-02-14T18:04:01.106Z,22.41
2019-02-14T18:06:29.516Z,22.40
2019-02-14T18:08:58.150Z,22.40
2019-02-14T18:11:26.602Z,22.40
2019-02-14T18:13:55.112Z,22.38
2019-02-14T18:16:23.568Z,22.37
2019-02-14T18:18:52.072Z,22.37
2019-02-14T18:21:20.510Z,22.37
2019-02-14T18:23:48.994Z,22.37
2019-02-14T18:26:17.403Z,22.37
2019-02-14T18:28:45.814Z,22.37
2019-02-14T18:31:14.288Z,22.37
2019-02-14T18:33:42.711Z,22.37
2019-02-14T18:36:11.189Z,22.37
2019-02-14T18:38:39.811Z,22.37
2019-02-14T18:41:08.219Z,22.38
2019-02-14T18:43:36.712Z,22.37
2019-02-14T18:46:05.330Z,22.38
2019-02-14T18:48:33.725Z,22.37
2019-02-14T18:51:02.158Z,22.38
2019-02-14T18:53:30.615Z,22.37
2019-02-14T18:55:59.027Z,22.36
2019-02-14T18:58:27.429Z,22.37
2019-02-14T19:00:56.137Z,22.36
2019-02-14T19:03:24.611Z,22.37
2019-02-14T19:05:53.161Z,22.36
2019-02-14T19:08:23.574Z,22.35
2019-02-14T19:10:52.917Z,22.37
2019-02-14T19:13:21.415Z,22.37
2019-02-14T19:15:49.860Z,22.38
2019-02-14T19:18:18.926Z,22.39
2019-02-14T19:20:48.664Z,22.38
2019-02-14T19:23:23.976Z,22.37
2019-02-14T19:25:47.743Z,22.38
2019-02-14T19:28:16.428Z,22.38
2019-02-14T19:30:44.914Z,22.39
2019-02-14T19:33:13.420Z,22.38
2019-02-14T19:35:41.895Z,22.38
2019-02-14T19:38:10.351Z,22.38
2019-02-14T19:40:38.753Z,22.36
2019-02-14T19:43:07.259Z,22.36
2019-02-14T19:45:36.790Z,22.37
2019-02-14T19:48:05.429Z,22.37
2019-02-14T19:50:33.830Z,22.36
2019-02-14T19:53:02.425Z,22.37
2019-02-14T19:55:30.836Z,22.37
2019-02-14T19:57:59.455Z,22.38
2019-02-14T20:00:27.969Z,22.37
2019-02-14T20:02:56.372Z,22.38
2019-02-14T20:05:24.901Z,22.38
2019-02-14T20:07:53.352Z,22.38
2019-02-14T20:10:22.989Z,22.37
2019-02-14T20:12:51.393Z,22.38
2019-02-14T20:15:20.825Z,22.38
2019-02-14T20:17:49.252Z,22.38
2019-02-14T20:20:17.666Z,22.39
2019-02-14T20:22:46.132Z,22.39
2019-02-14T20:25:17.619Z,22.37
2019-02-14T20:27:46.040Z,22.39
2019-02-14T20:30:14.500Z,22.41
2019-02-14T20:32:42.899Z,22.40
2019-02-14T20:35:11.363Z,22.41
2019-02-14T20:37:39.944Z,22.42
2019-02-14T20:40:10.283Z,22.41
2019-02-14T20:42:38.677Z,22.41
2019-02-14T20:45:10.266Z,22.41
2019-02-14T20:47:38.656Z,22.42
2019-02-14T20:50:10.320Z,22.42
2019-02-14T20:52:38.852Z,22.42
2019-02-14T20:55:10.286Z,22.43
2019-02-14T20:57:40.329Z,22.43
2019-02-14T21:00:12.692Z,22.42
2019-02-14T21:02:41.088Z,22.42
2019-02-14T21:05:11.090Z,22.42
2019-02-14T21:07:39.515Z,22.43
2019-02-14T21:10:09.537Z,22.43
2019-02-14T21:12:37.936Z,22.44
2019-02-14T21:15:08.618Z,22.45
2019-02-14T21:17:37.012Z,22.45
2019-02-14T21:20:08.620Z,22.45
2019-02-14T21:22:37.125Z,22.45
2019-02-14T21:25:07.769Z,22.45
2019-02-14T21:27:36.179Z,22.45
2019-02-14T21:30:10.616Z,22.45
2019-02-14T21:32:39.143Z,22.45
2019-02-14T21:35:07.703Z,22.43
2019-02-14T21:37:36.132Z,22.44
2019-02-14T21:40:07.805Z,22.43
2019-02-14T21:42:36.322Z,22.43
2019-02-14T21:45:07.476Z,22.42
2019-02-14T21:47:35.970Z,22.43
2019-02-14T21:50:05.451Z,22.43
2019-02-14T21:52:33.957Z,22.43
2019-02-14T21:55:02.398Z,22.43
2019-02-14T21:57:30.889Z,22.43
2019-02-14T21:59:59.329Z,22.42
2019-02-14T22:02:27.742Z,22.41
2019-02-14T22:04:56.198Z,22.41
2019-02-14T22:07:24.897Z,22.41
2019-02-14T22:09:53.354Z,22.40
2019-02-14T22:12:38.138Z,22.41
2019-02-14T22:14:52.119Z,22.41
2019-02-14T22:17:22.723Z,22.42
2019-02-14T22:19:50.873Z,22.41
2019-02-14T22:22:19.813Z,22.40
2019-02-14T22:24:48.270Z,22.41
2019-02-14T22:27:16.664Z,22.40
2019-02-14T22:29:45.101Z,22.40
2019-02-14T22:32:13.495Z,22.39
2019-02-14T22:34:41.958Z,22.40
2019-02-14T22:37:10.457Z,22.34
2019-02-14T22:39:38.852Z,22.41
2019-02-14T22:42:07.242Z,22.41
2019-02-14T22:44:35.711Z,22.42
2019-02-14T22:47:04.099Z,22.40
2019-02-14T22:49:32.495Z,22.41
2019-02-14T22:52:00.943Z,22.41
2019-02-14T22:54:29.344Z,22.41
2019-02-14T22:56:57.729Z,22.42
2019-02-14T22:59:26.335Z,22.43
2019-02-14T23:01:54.788Z,22.41
2019-02-14T23:04:23.231Z,22.42
2019-02-14T23:06:51.660Z,22.41
2019-02-14T23:09:20.053Z,22.43
2019-02-14T23:11:48.523Z,22.42
2019-02-14T23:14:16.970Z,22.42
2019-02-14T23:16:45.357Z,22.42
2019-02-14T23:19:13.746Z,22.42
2019-02-14T23:21:42.217Z,22.42
2019-02-14T23:24:10.680Z,22.42
2019-02-14T23:26:39.080Z,22.42
2019-02-14T23:29:07.512Z,22.42
2019-02-14T23:31:35.900Z,22.41
2019-02-14T23:34:04.362Z,22.42
2019-02-14T23:36:32.810Z,22.42
2019-02-14T23:39:01.256Z,22.41
2019-02-14T23:41:29.645Z,22.41
2019-02-14T23:43:58.086Z,22.43
2019-02-14T23:46:26.545Z,22.42
2019-02-14T23:48:54.940Z,22.41
2019-02-14T23:51:23.489Z,22.41
2019-02-14T23:53:51.876Z,22.41
2019-02-14T23:56:20.272Z,22.40
2019-02-14T23:58:48.720Z,22.41
